Airfield :
LOGIN :

Register | Disclaimer

   EN    FR    IT 

 










Legend :    VFR   Marginal VFR   IFR   Intensive IFR   Very Intensive IFR
Visi :
Ceiling :
>= 8 km
>= 3000ft
5 to 8 km
1000 to 3000 ft
1500m to 5 km
500 to 1000 ft
800 to 1500m
200 to 500 ft
< 800m
< 200 ft
Symbols :   Thunderstorms  Fog  Heavy snow  Heavy precipitations  Wind > 20 kt
SIGMETs :     Misc.  Thunderstorms  Icing  Turbulence  Mountain Waves  Volcanic Ashes







- Airport Elevation : 995 ft
- IATA code : KTW


EPKT - Katowice

CURRENT METAR :
  • 190730Z 29012KT 9999 FEW021 03/M02 Q1022

EXPIRED METARs :
  • 190700Z 29009KT CAVOK 03/M02 Q1022
  • 190630Z 26006KT CAVOK 02/M02 Q1022
  • 190600Z 26005KT CAVOK 00/M02 Q1022
  • 190530Z 24005KT CAVOK M00/M03 Q1021
  • 190500Z 25007KT CAVOK M01/M03 Q1021

TAF TAF EPKT
Valid from the 19 at 06:00 until the 20 at 06:00 UTC


190530Z 1906/2006 26010KT CAVOK
PROB40
TEMPO 1907/1913 29015G25KT
TEMPO 1909/1918 SCT025CB
BECMG 1915/1918 32005KT
BECMG 1921/1924 3000 BR
TEMPO 2000/2006 1100 BR
No reported NOTAMs for that airfield.



MET'MAP, your aeronautical weather chart ! - Copyright ORBIFLY December 2007 - Disclaimer

ORBIFLY MET'MAP TEAM :

Programming & Development : Alexandra Zaïnal
Concept & Development : Baudouin d'Aumeries
Co-Development & Prog : Marc-Olivier Méhu
Technical & hardware support : Manuel Goepfert

Contact : metmap@orbifly.com




SOURCES & CREDITS :

   NOAA